Time;durP1;ratioP1;P1;durP2;ratioP2;P2;SDS_P1;SDS_P2;PMS_P1;PMS_P2;Temp;Humidity;BMP_temperature;BMP_pressure;BME280_temperature;BME280_humidity;BME280_pressure;Samples;Min_cycle;Max_cycle;Signal;HPM_P1;HPM_P2
2021/09/30 00:02:23;;;;;;;;;;;10.80;99.90;;;;;;4974116;28;20447;-72
2021/09/30 00:04:54;;;;;;;;;;;10.70;99.90;;;;;;4974863;28;19934;-73
2021/09/30 00:07:26;;;;;;;;;;;10.70;99.90;;;;;;5010770;28;19980;-73
2021/09/30 00:09:58;;;;;;;;;;;10.60;99.90;;;;;;4994333;28;19925;-71
2021/09/30 00:12:29;;;;;;;;;;;10.60;99.90;;;;;;5012592;28;19929;-73
2021/09/30 00:15:05;;;;;;;;;;;10.60;99.90;;;;;;4996471;28;19925;-74
2021/09/30 00:42:19;;;;;;;;;;;10.30;99.90;;;;;;4996305;28;19957;-72
2021/09/30 00:47:52;;;;;;;;;;;10.30;99.90;;;;;;4977040;28;19925;-73
2021/09/30 00:53:41;;;;;;;;;;;10.10;99.90;;;;;;4976921;28;20293;-72
2021/09/30 03:00:23;;;;;;;;;;;9.50;99.90;;;;;;4974719;28;19925;-72
2021/09/30 03:02:52;;;;;;;;;;;9.50;99.90;;;;;;4974648;28;20146;-72
2021/09/30 03:05:24;;;;;;;;;;;9.40;99.90;;;;;;4959663;28;19926;-73
2021/09/30 03:07:58;;;;;;;;;;;9.40;99.90;;;;;;4975019;28;19926;-73
2021/09/30 03:10:25;;;;;;;;;;;9.30;99.90;;;;;;4974209;28;19960;-73
2021/09/30 03:12:54;;;;;;;;;;;9.30;99.90;;;;;;4974790;28;19968;-72
2021/09/30 03:15:32;;;;;;;;;;;9.30;99.90;;;;;;4983267;28;19932;-72
2021/09/30 03:23:14;;;;;;;;;;;9.20;99.90;;;;;;4993779;28;19925;-72
2021/09/30 03:25:48;;;;;;;;;;;9.20;99.90;;;;;;4994544;28;19974;-72
2021/09/30 03:28:18;;;;;;;;;;;9.20;99.90;;;;;;5011097;28;20427;-73
2021/09/30 03:30:53;;;;;;;;;;;9.20;99.90;;;;;;4993881;28;19929;-72
2021/09/30 03:33:26;;;;;;;;;;;9.20;99.90;;;;;;4993610;28;19925;-72
2021/09/30 03:36:10;;;;;;;;;;;9.20;99.90;;;;;;5010881;28;19926;-72
2021/09/30 03:38:41;;;;;;;;;;;9.10;99.90;;;;;;4993714;28;20300;-72
2021/09/30 03:41:13;;;;;;;;;;;9.10;99.90;;;;;;4993576;28;19926;-72
2021/09/30 03:43:40;;;;;;;;;;;9.10;99.90;;;;;;4993722;28;19932;-73
2021/09/30 03:46:12;;;;;;;;;;;9.00;99.90;;;;;;4994225;28;19925;-72
2021/09/30 03:48:59;;;;;;;;;;;9.00;99.90;;;;;;5014780;28;20435;-72
2021/09/30 03:59:49;;;;;;;;;;;9.00;99.90;;;;;;5007081;28;19926;-72
2021/09/30 04:02:40;;;;;;;;;;;9.00;99.90;;;;;;5001309;28;19926;-72
2021/09/30 04:05:12;;;;;;;;;;;9.00;99.90;;;;;;4969415;28;19953;-73
2021/09/30 04:07:44;;;;;;;;;;;8.90;99.90;;;;;;4982990;28;19992;-73
2021/09/30 04:10:16;;;;;;;;;;;8.90;99.90;;;;;;4991090;28;19929;-72
2021/09/30 04:12:46;;;;;;;;;;;8.90;99.90;;;;;;4982182;28;19930;-71
2021/09/30 04:15:17;;;;;;;;;;;8.90;99.90;;;;;;4971122;28;20332;-72
2021/09/30 04:17:45;;;;;;;;;;;8.90;99.90;;;;;;4976329;28;19961;-73
2021/09/30 04:20:19;;;;;;;;;;;8.80;99.90;;;;;;4991151;28;19971;-71
2021/09/30 04:23:03;;;;;;;;;;;8.80;99.90;;;;;;4981472;28;20645;-72
2021/09/30 04:25:38;;;;;;;;;;;8.70;99.90;;;;;;4976806;28;20396;-72
2021/09/30 04:28:10;;;;;;;;;;;8.70;99.90;;;;;;4977056;28;19925;-72
2021/09/30 04:30:42;;;;;;;;;;;8.70;99.90;;;;;;4976880;28;20303;-72
2021/09/30 04:33:20;;;;;;;;;;;8.70;99.90;;;;;;4977231;28;19976;-74
2021/09/30 04:35:50;;;;;;;;;;;8.70;99.90;;;;;;4976992;28;20012;-72
2021/09/30 04:38:22;;;;;;;;;;;8.70;99.90;;;;;;4977351;28;20423;-72
2021/09/30 04:40:53;;;;;;;;;;;8.70;99.90;;;;;;4961825;28;19973;-72
2021/09/30 04:43:25;;;;;;;;;;;8.70;99.90;;;;;;4977373;28;19932;-71
2021/09/30 04:45:57;;;;;;;;;;;8.60;99.90;;;;;;4976574;28;20009;-72
2021/09/30 04:48:34;;;;;;;;;;;8.60;99.90;;;;;;4962781;28;20395;-71
2021/09/30 04:51:14;;;;;;;;;;;8.60;99.90;;;;;;4989645;28;20400;-73
2021/09/30 04:53:46;;;;;;;;;;;8.60;99.90;;;;;;4989445;28;19936;-73
2021/09/30 04:56:17;;;;;;;;;;;8.60;99.90;;;;;;4982775;28;20672;-72
2021/09/30 04:58:53;;;;;;;;;;;8.60;99.90;;;;;;4973626;28;19926;-72
2021/09/30 05:01:19;;;;;;;;;;;8.50;99.90;;;;;;4970925;28;19926;-72
2021/09/30 05:03:52;;;;;;;;;;;8.50;99.90;;;;;;4976652;28;19933;-73
2021/09/30 05:06:24;;;;;;;;;;;8.50;99.90;;;;;;4993531;28;19926;-72
2021/09/30 05:08:59;;;;;;;;;;;8.50;99.90;;;;;;4977473;28;19980;-72
2021/09/30 05:11:50;;;;;;;;;;;8.50;99.90;;;;;;4961231;28;20389;-74
2021/09/30 05:14:22;;;;;;;;;;;8.40;99.90;;;;;;4960857;28;20308;-72
2021/09/30 05:16:54;;;;;;;;;;;8.40;99.90;;;;;;4978022;28;19957;-72
2021/09/30 05:19:34;;;;;;;;;;;8.40;99.90;;;;;;4976283;28;19926;-72
2021/09/30 05:22:08;;;;;;;;;;;8.40;99.90;;;;;;4976444;28;19925;-72
2021/09/30 05:24:40;;;;;;;;;;;8.40;99.90;;;;;;4960373;28;19926;-72
2021/09/30 05:27:12;;;;;;;;;;;8.30;99.90;;;;;;4976211;28;19938;-72
2021/09/30 05:29:39;;;;;;;;;;;8.40;99.90;;;;;;4976365;28;20008;-72
2021/09/30 05:32:10;;;;;;;;;;;8.40;99.90;;;;;;5013023;28;19934;-72
2021/09/30 05:34:54;;;;;;;;;;;8.40;99.90;;;;;;4995504;28;19981;-72
2021/09/30 05:37:24;;;;;;;;;;;8.50;99.90;;;;;;4978504;28;19973;-73
2021/09/30 05:39:57;;;;;;;;;;;8.50;99.90;;;;;;4977181;28;19933;-73
2021/09/30 05:42:29;;;;;;;;;;;8.50;99.90;;;;;;4972473;28;19925;-73
2021/09/30 05:45:06;;;;;;;;;;;8.60;99.90;;;;;;4975386;28;19968;-73
2021/09/30 05:47:33;;;;;;;;;;;8.60;99.90;;;;;;4976206;28;19972;-72
2021/09/30 05:50:00;;;;;;;;;;;8.60;99.90;;;;;;5003659;28;19926;-72
2021/09/30 05:52:39;;;;;;;;;;;8.60;99.90;;;;;;4964122;28;19933;-73
2021/09/30 05:55:17;;;;;;;;;;;9.00;99.90;;;;;;5000945;28;20388;-73
2021/09/30 05:57:44;;;;;;;;;;;9.00;99.90;;;;;;4975888;28;19926;-72
2021/09/30 06:16:26;;;;;;;;;;;8.60;99.90;;;;;;4984991;28;20393;-72
2021/09/30 06:19:08;;;;;;;;;;;8.60;99.90;;;;;;4969261;28;19925;-72
2021/09/30 06:21:38;;;;;;;;;;;8.60;99.90;;;;;;4994189;28;19961;-71
2021/09/30 06:24:05;;;;;;;;;;;8.70;99.90;;;;;;4994373;28;20380;-72
2021/09/30 06:26:48;;;;;;;;;;;8.70;99.90;;;;;;4981043;28;19925;-72
2021/09/30 06:29:20;;;;;;;;;;;8.80;99.90;;;;;;4995764;28;19925;-72
2021/09/30 06:31:52;;;;;;;;;;;8.80;99.90;;;;;;4979076;28;19926;-72
2021/09/30 06:34:46;;;;;;;;;;;8.80;99.90;;;;;;5011701;28;19930;-72
2021/09/30 06:37:16;;;;;;;;;;;8.90;99.90;;;;;;5011035;28;19937;-73
2021/09/30 06:39:48;;;;;;;;;;;8.90;99.90;;;;;;4987109;28;20381;-72
2021/09/30 06:42:15;;;;;;;;;;;9.00;99.90;;;;;;4985108;28;20408;-72
2021/09/30 06:44:47;;;;;;;;;;;9.00;99.90;;;;;;5012515;28;20404;-72
2021/09/30 06:47:27;;;;;;;;;;;9.00;99.90;;;;;;4973260;28;20066;-72
2021/09/30 06:50:09;;;;;;;;;;;9.10;99.90;;;;;;4957367;28;19930;-73
2021/09/30 06:53:01;;;;;;;;;;;9.10;99.90;;;;;;4972434;28;19932;-73
2021/09/30 06:55:51;;;;;;;;;;;9.20;99.90;;;;;;4967011;28;19926;-73
2021/09/30 06:58:46;;;;;;;;;;;9.20;99.90;;;;;;4998794;28;19929;-73
2021/09/30 07:01:23;;;;;;;;;;;9.30;99.90;;;;;;5010773;28;20311;-73
2021/09/30 07:04:08;;;;;;;;;;;9.30;99.90;;;;;;4997277;28;19931;-73
2021/09/30 07:06:50;;;;;;;;;;;9.30;99.90;;;;;;4994282;28;20392;-73
2021/09/30 07:09:18;;;;;;;;;;;9.40;99.90;;;;;;4978055;28;19925;-73
2021/09/30 07:11:50;;;;;;;;;;;9.40;99.90;;;;;;4994183;28;19925;-73
2021/09/30 07:14:16;;;;;;;;;;;9.50;99.90;;;;;;4978081;28;20447;-73
2021/09/30 07:16:43;;;;;;;;;;;9.50;99.90;;;;;;4992282;28;19938;-73
2021/09/30 07:19:15;;;;;;;;;;;9.60;99.90;;;;;;4980474;28;19926;-73
2021/09/30 07:21:42;;;;;;;;;;;9.70;99.90;;;;;;5007511;28;19929;-73
2021/09/30 07:24:14;;;;;;;;;;;9.70;99.90;;;;;;5002620;28;19929;-73
2021/09/30 07:26:45;;;;;;;;;;;9.90;99.90;;;;;;4996753;28;20377;-72
2021/09/30 07:29:17;;;;;;;;;;;9.90;99.90;;;;;;4978513;28;19929;-72
2021/09/30 07:31:44;;;;;;;;;;;9.90;99.90;;;;;;4978430;28;19976;-72
2021/09/30 07:34:11;;;;;;;;;;;10.00;99.90;;;;;;4978007;28;19957;-72
2021/09/30 07:36:44;;;;;;;;;;;10.00;99.90;;;;;;4979882;28;20404;-72
2021/09/30 07:39:12;;;;;;;;;;;10.10;99.90;;;;;;4979878;28;19932;-73
2021/09/30 07:41:44;;;;;;;;;;;10.10;99.90;;;;;;4972994;28;19926;-72
2021/09/30 07:44:11;;;;;;;;;;;10.10;99.90;;;;;;4962646;28;19994;-72
2021/09/30 07:46:39;;;;;;;;;;;10.20;99.90;;;;;;4978901;28;20371;-72
2021/09/30 07:49:12;;;;;;;;;;;10.30;99.90;;;;;;4988074;28;19980;-72
2021/09/30 07:51:40;;;;;;;;;;;10.40;99.90;;;;;;4997328;28;19925;-72
2021/09/30 07:54:08;;;;;;;;;;;10.50;99.90;;;;;;4993332;28;20830;-72
2021/09/30 07:56:35;;;;;;;;;;;10.60;99.90;;;;;;4975576;28;20403;-72
2021/09/30 07:59:07;;;;;;;;;;;10.60;99.90;;;;;;4991067;28;20316;-72
2021/09/30 08:01:39;;;;;;;;;;;10.70;99.90;;;;;;4981624;28;19926;-72
2021/09/30 08:04:13;;;;;;;;;;;10.70;99.90;;;;;;4978478;28;20305;-72
2021/09/30 08:06:40;;;;;;;;;;;10.80;99.90;;;;;;4985421;28;20012;-72
2021/09/30 08:09:07;;;;;;;;;;;10.90;99.90;;;;;;4992505;28;19931;-72
2021/09/30 08:11:34;;;;;;;;;;;11.00;99.90;;;;;;4977482;28;19926;-72
2021/09/30 08:14:01;;;;;;;;;;;11.10;99.90;;;;;;4989702;28;19937;-72
2021/09/30 08:16:27;;;;;;;;;;;11.10;99.90;;;;;;4975998;28;19936;-72
2021/09/30 08:19:00;;;;;;;;;;;11.20;99.90;;;;;;4977658;28;19934;-72
2021/09/30 08:21:27;;;;;;;;;;;11.30;99.90;;;;;;4994584;28;20373;-72
2021/09/30 08:23:59;;;;;;;;;;;11.30;99.90;;;;;;4997744;28;19929;-72
2021/09/30 08:26:26;;;;;;;;;;;11.30;99.90;;;;;;4980591;28;19929;-72
2021/09/30 08:28:53;;;;;;;;;;;11.40;99.90;;;;;;4977304;28;19972;-72
2021/09/30 08:31:25;;;;;;;;;;;11.50;99.90;;;;;;4976397;28;19926;-72
2021/09/30 08:33:54;;;;;;;;;;;11.50;99.90;;;;;;4977456;28;19930;-72
2021/09/30 08:36:21;;;;;;;;;;;11.60;99.90;;;;;;4977706;28;19925;-72
2021/09/30 08:38:47;;;;;;;;;;;11.60;99.90;;;;;;4977578;28;20021;-72
2021/09/30 08:41:20;;;;;;;;;;;11.70;99.90;;;;;;4994599;28;19934;-72
2021/09/30 08:43:52;;;;;;;;;;;11.80;99.90;;;;;;4994562;28;19926;-72
2021/09/30 08:46:19;;;;;;;;;;;11.80;99.90;;;;;;4976465;28;19977;-72
2021/09/30 08:48:46;;;;;;;;;;;11.90;99.90;;;;;;4976390;28;19926;-72
2021/09/30 08:51:18;;;;;;;;;;;12.00;99.90;;;;;;4977019;28;20316;-72
2021/09/30 08:53:45;;;;;;;;;;;12.10;99.90;;;;;;5010423;28;19929;-72
2021/09/30 08:56:17;;;;;;;;;;;12.10;99.90;;;;;;4994755;28;20395;-72
2021/09/30 08:58:51;;;;;;;;;;;12.20;99.90;;;;;;4980970;28;19925;-72
2021/09/30 09:01:18;;;;;;;;;;;12.20;99.90;;;;;;4996240;28;19925;-72
2021/09/30 09:03:50;;;;;;;;;;;12.30;99.90;;;;;;4995544;28;19926;-72
2021/09/30 09:06:33;;;;;;;;;;;12.40;99.90;;;;;;5009800;28;19956;-72
2021/09/30 09:09:19;;;;;;;;;;;12.30;99.90;;;;;;4994171;28;19925;-71
2021/09/30 09:11:55;;;;;;;;;;;12.30;99.90;;;;;;4997528;28;19965;-71
2021/09/30 09:14:29;;;;;;;;;;;12.40;99.90;;;;;;5002431;28;19968;-72
2021/09/30 09:17:04;;;;;;;;;;;12.50;99.90;;;;;;5013812;28;19925;-72
2021/09/30 09:19:40;;;;;;;;;;;12.50;99.90;;;;;;5005809;28;19932;-71
2021/09/30 09:22:14;;;;;;;;;;;12.60;99.90;;;;;;4993221;28;20082;-71
2021/09/30 09:24:55;;;;;;;;;;;12.60;99.90;;;;;;4996484;28;19931;-71
2021/09/30 09:27:21;;;;;;;;;;;12.50;99.90;;;;;;5013415;28;19925;-72
2021/09/30 09:29:53;;;;;;;;;;;12.50;99.90;;;;;;4995620;28;19925;-71
2021/09/30 09:32:25;;;;;;;;;;;12.60;99.90;;;;;;4979377;28;19937;-71
2021/09/30 09:34:52;;;;;;;;;;;12.60;99.90;;;;;;4993282;28;19933;-73
2021/09/30 09:37:37;;;;;;;;;;;12.50;99.90;;;;;;4977866;28;20397;-73
2021/09/30 09:40:16;;;;;;;;;;;12.60;99.90;;;;;;4993395;28;19925;-71
2021/09/30 09:42:43;;;;;;;;;;;12.70;99.90;;;;;;4983967;28;20332;-71
2021/09/30 09:45:15;;;;;;;;;;;12.80;99.90;;;;;;4973292;28;19956;-72
2021/09/30 09:47:47;;;;;;;;;;;12.80;99.90;;;;;;4957100;28;19926;-71
2021/09/30 09:50:23;;;;;;;;;;;12.90;99.90;;;;;;4974473;28;19926;-72
2021/09/30 09:52:56;;;;;;;;;;;13.00;99.90;;;;;;4974374;28;19932;-72
2021/09/30 09:55:25;;;;;;;;;;;13.30;99.90;;;;;;4972328;28;19933;-74
2021/09/30 09:58:00;;;;;;;;;;;13.40;99.90;;;;;;4993246;28;20104;-71
2021/09/30 10:00:38;;;;;;;;;;;13.40;99.90;;;;;;4975758;28;19926;-72
2021/09/30 10:03:11;;;;;;;;;;;13.50;99.90;;;;;;4975583;28;19996;-71
2021/09/30 10:05:44;;;;;;;;;;;13.60;99.90;;;;;;4983756;28;19961;-71
2021/09/30 10:08:12;;;;;;;;;;;13.60;99.90;;;;;;5009574;28;19936;-71
2021/09/30 10:10:39;;;;;;;;;;;13.30;99.90;;;;;;4995256;28;19926;-71
2021/09/30 10:13:11;;;;;;;;;;;13.20;99.90;;;;;;5012888;28;19941;-71
2021/09/30 10:15:39;;;;;;;;;;;13.20;99.90;;;;;;4994712;28;19975;-73
2021/09/30 10:18:07;;;;;;;;;;;13.20;99.90;;;;;;4994943;28;19925;-71
2021/09/30 10:20:40;;;;;;;;;;;13.30;99.90;;;;;;5012870;28;19936;-73
2021/09/30 10:23:07;;;;;;;;;;;13.40;99.90;;;;;;5012641;28;19933;-71
2021/09/30 10:25:44;;;;;;;;;;;13.50;99.90;;;;;;4995593;28;19925;-72
2021/09/30 10:28:12;;;;;;;;;;;13.50;99.90;;;;;;5010404;28;20300;-72
2021/09/30 10:30:45;;;;;;;;;;;13.60;99.90;;;;;;4992474;28;20376;-71
2021/09/30 10:33:13;;;;;;;;;;;13.70;99.90;;;;;;4991757;28;19933;-71
2021/09/30 10:35:46;;;;;;;;;;;13.70;99.90;;;;;;4999897;28;19926;-71
2021/09/30 10:38:16;;;;;;;;;;;13.60;99.90;;;;;;4992808;28;20457;-71
2021/09/30 10:41:01;;;;;;;;;;;13.50;99.90;;;;;;5012149;28;19926;-71
2021/09/30 10:43:32;;;;;;;;;;;13.40;99.90;;;;;;4994330;28;20304;-73
2021/09/30 10:46:04;;;;;;;;;;;13.30;99.90;;;;;;4989855;28;19929;-72
2021/09/30 10:48:34;;;;;;;;;;;13.30;99.90;;;;;;4989525;28;19976;-71
2021/09/30 10:51:08;;;;;;;;;;;13.30;99.90;;;;;;4994239;28;20307;-71
2021/09/30 10:53:55;;;;;;;;;;;13.40;99.90;;;;;;4988851;28;19932;-71
2021/09/30 10:56:27;;;;;;;;;;;13.40;99.90;;;;;;4961314;28;19934;-72
2021/09/30 10:59:08;;;;;;;;;;;13.60;99.90;;;;;;4973868;28;19936;-73
2021/09/30 11:01:49;;;;;;;;;;;13.60;99.90;;;;;;4991109;28;20377;-72
2021/09/30 11:04:16;;;;;;;;;;;13.60;99.90;;;;;;4982512;28;19926;-71
2021/09/30 11:07:02;;;;;;;;;;;13.70;99.90;;;;;;4966505;28;19968;-71
2021/09/30 11:09:34;;;;;;;;;;;13.80;99.90;;;;;;4971260;28;19930;-71
2021/09/30 11:12:07;;;;;;;;;;;13.90;99.90;;;;;;4971568;28;20385;-71
2021/09/30 11:14:50;;;;;;;;;;;13.90;99.90;;;;;;4985608;28;19926;-71
2021/09/30 11:17:34;;;;;;;;;;;13.90;99.90;;;;;;4979469;28;20012;-71
2021/09/30 11:20:25;;;;;;;;;;;14.00;99.90;;;;;;4993490;28;19925;-71
2021/09/30 11:22:58;;;;;;;;;;;13.80;99.90;;;;;;5011692;28;19925;-71
2021/09/30 11:25:48;;;;;;;;;;;13.90;99.90;;;;;;4994412;28;19926;-71
2021/09/30 11:28:15;;;;;;;;;;;14.10;99.90;;;;;;4955332;28;19926;-71
2021/09/30 11:30:47;;;;;;;;;;;14.30;99.90;;;;;;4981511;28;20337;-72
2021/09/30 11:33:13;;;;;;;;;;;14.40;99.90;;;;;;4981108;28;20036;-72
2021/09/30 11:35:46;;;;;;;;;;;14.50;99.90;;;;;;4994648;28;20337;-71
2021/09/30 11:38:18;;;;;;;;;;;14.60;99.90;;;;;;4972757;28;19930;-71
2021/09/30 11:40:50;;;;;;;;;;;14.70;99.90;;;;;;4974337;28;19932;-71
2021/09/30 11:43:22;;;;;;;;;;;14.70;99.90;;;;;;4957376;28;19926;-72
2021/09/30 11:45:54;;;;;;;;;;;14.70;99.90;;;;;;4974754;28;20398;-71
2021/09/30 11:48:26;;;;;;;;;;;14.70;99.90;;;;;;4990648;28;20404;-73
2021/09/30 11:50:57;;;;;;;;;;;14.70;99.90;;;;;;4979726;28;20296;-72
2021/09/30 11:53:23;;;;;;;;;;;14.80;99.90;;;;;;4999580;28;20384;-71
2021/09/30 11:55:58;;;;;;;;;;;14.80;99.90;;;;;;4969997;28;20323;-72
2021/09/30 11:58:25;;;;;;;;;;;14.90;99.90;;;;;;4980821;28;20410;-72
2021/09/30 12:00:56;;;;;;;;;;;14.90;99.90;;;;;;4993969;28;19932;-72
2021/09/30 12:03:23;;;;;;;;;;;14.90;99.90;;;;;;4972565;28;19926;-71
2021/09/30 12:05:52;;;;;;;;;;;14.80;99.90;;;;;;4993262;28;19960;-72
2021/09/30 12:08:21;;;;;;;;;;;14.80;99.90;;;;;;4981186;28;20415;-71
2021/09/30 12:10:56;;;;;;;;;;;14.70;99.90;;;;;;4996577;28;19932;-73
2021/09/30 12:13:28;;;;;;;;;;;14.70;99.90;;;;;;4991122;28;19932;-73
2021/09/30 12:16:02;;;;;;;;;;;14.70;99.90;;;;;;4997942;28;19930;-72
2021/09/30 12:18:34;;;;;;;;;;;14.80;99.90;;;;;;5014707;28;19972;-72
2021/09/30 12:21:02;;;;;;;;;;;14.90;99.90;;;;;;4997255;28;19929;-72
2021/09/30 12:23:29;;;;;;;;;;;15.10;99.90;;;;;;5000548;28;19926;-72
2021/09/30 12:26:01;;;;;;;;;;;15.30;99.90;;;;;;4976376;28;19926;-72
2021/09/30 12:28:33;;;;;;;;;;;15.50;99.90;;;;;;4995153;28;19926;-74
2021/09/30 12:31:04;;;;;;;;;;;15.70;99.90;;;;;;4993919;28;20016;-74
2021/09/30 12:33:31;;;;;;;;;;;15.80;99.90;;;;;;4993869;28;19961;-72
2021/09/30 12:36:04;;;;;;;;;;;15.70;99.90;;;;;;4994689;28;20025;-73
2021/09/30 12:38:39;;;;;;;;;;;15.70;99.90;;;;;;4994705;28;20012;-73
2021/09/30 12:41:06;;;;;;;;;;;15.80;99.90;;;;;;4992972;28;19977;-73
2021/09/30 12:43:34;;;;;;;;;;;15.70;99.90;;;;;;4977266;28;20016;-73
2021/09/30 12:46:06;;;;;;;;;;;15.60;99.90;;;;;;4992619;28;19930;-73
2021/09/30 12:48:48;;;;;;;;;;;15.40;99.90;;;;;;4991167;28;19956;-73
2021/09/30 12:51:25;;;;;;;;;;;15.40;99.90;;;;;;4981129;28;19976;-73
2021/09/30 12:54:00;;;;;;;;;;;15.30;99.90;;;;;;4992372;28;19929;-73
2021/09/30 12:56:31;;;;;;;;;;;15.20;99.90;;;;;;4976542;28;20580;-73
2021/09/30 12:59:16;;;;;;;;;;;15.10;99.90;;;;;;4994801;28;20041;-73
2021/09/30 13:02:05;;;;;;;;;;;15.10;99.90;;;;;;4977383;28;19930;-73
2021/09/30 13:04:55;;;;;;;;;;;15.10;99.90;;;;;;4979231;28;20384;-73
2021/09/30 13:07:45;;;;;;;;;;;15.20;99.90;;;;;;4991760;28;19930;-73
2021/09/30 13:10:17;;;;;;;;;;;15.50;99.90;;;;;;4977250;28;19926;-73
2021/09/30 13:13:00;;;;;;;;;;;15.60;99.90;;;;;;4966482;28;20013;-74
2021/09/30 13:15:37;;;;;;;;;;;15.70;99.90;;;;;;4987760;28;20021;-73
2021/09/30 13:18:11;;;;;;;;;;;15.70;99.10;;;;;;4976964;28;19932;-73
2021/09/30 13:21:02;;;;;;;;;;;15.80;99.00;;;;;;4993602;28;19926;-73
2021/09/30 13:23:29;;;;;;;;;;;15.90;99.40;;;;;;4992375;28;19930;-74
2021/09/30 13:26:04;;;;;;;;;;;15.90;98.20;;;;;;4977167;28;19925;-73
2021/09/30 13:28:38;;;;;;;;;;;15.90;98.50;;;;;;4993694;28;20349;-73
2021/09/30 13:31:12;;;;;;;;;;;16.00;98.80;;;;;;4993438;28;19937;-73
2021/09/30 13:33:47;;;;;;;;;;;16.10;98.80;;;;;;4993614;28;20381;-73
2021/09/30 13:36:21;;;;;;;;;;;16.30;99.00;;;;;;4993660;28;19926;-73
2021/09/30 13:38:57;;;;;;;;;;;16.40;98.60;;;;;;4992368;28;20409;-73
2021/09/30 13:41:30;;;;;;;;;;;16.40;97.60;;;;;;4993588;28;19930;-73
2021/09/30 13:44:08;;;;;;;;;;;16.60;97.30;;;;;;4990348;28;19929;-73
2021/09/30 13:46:45;;;;;;;;;;;16.70;95.90;;;;;;4982666;28;20299;-73
2021/09/30 13:49:20;;;;;;;;;;;16.70;96.90;;;;;;4973012;28;19934;-74
2021/09/30 13:51:52;;;;;;;;;;;16.50;96.50;;;;;;4991600;28;19925;-73
2021/09/30 13:54:32;;;;;;;;;;;16.50;96.40;;;;;;4972016;28;20154;-72
2021/09/30 13:57:09;;;;;;;;;;;16.40;95.60;;;;;;4989826;28;19926;-73
2021/09/30 13:59:40;;;;;;;;;;;16.50;96.20;;;;;;4973916;28;19926;-74
2021/09/30 14:02:32;;;;;;;;;;;16.40;95.50;;;;;;4992887;28;19984;-73
2021/09/30 14:05:10;;;;;;;;;;;16.40;95.50;;;;;;5000986;28;20511;-73
2021/09/30 14:07:50;;;;;;;;;;;16.50;96.40;;;;;;4984012;28;20407;-73
2021/09/30 14:10:27;;;;;;;;;;;16.50;96.10;;;;;;4973030;28;19925;-73
2021/09/30 14:13:04;;;;;;;;;;;16.60;93.90;;;;;;4999041;28;20534;-73
2021/09/30 14:15:38;;;;;;;;;;;16.80;95.70;;;;;;4983398;28;19941;-73
2021/09/30 14:18:07;;;;;;;;;;;17.00;95.50;;;;;;5003760;28;19926;-74
2021/09/30 14:20:47;;;;;;;;;;;17.00;94.80;;;;;;4999173;28;19933;-74
2021/09/30 14:23:18;;;;;;;;;;;17.00;94.00;;;;;;4981069;28;19976;-73
2021/09/30 14:25:51;;;;;;;;;;;17.00;93.70;;;;;;4965094;28;20308;-73
2021/09/30 14:28:21;;;;;;;;;;;17.00;92.70;;;;;;4972668;28;19926;-74
2021/09/30 14:30:56;;;;;;;;;;;16.90;94.60;;;;;;4983371;28;19926;-73
2021/09/30 14:33:29;;;;;;;;;;;17.00;93.70;;;;;;4992561;28;19973;-73
2021/09/30 14:35:57;;;;;;;;;;;17.00;94.30;;;;;;4975241;28;19925;-74
2021/09/30 14:38:35;;;;;;;;;;;17.00;93.30;;;;;;4992147;28;20013;-73
2021/09/30 14:41:16;;;;;;;;;;;17.10;92.80;;;;;;4990834;28;19929;-74
2021/09/30 14:43:55;;;;;;;;;;;17.10;93.10;;;;;;4970740;28;19926;-73
2021/09/30 14:46:31;;;;;;;;;;;17.10;92.40;;;;;;4974310;28;19930;-73
2021/09/30 14:49:00;;;;;;;;;;;17.30;92.80;;;;;;4997118;28;19926;-73
2021/09/30 14:51:35;;;;;;;;;;;17.40;91.90;;;;;;4965491;28;20009;-74
2021/09/30 14:54:03;;;;;;;;;;;17.60;91.60;;;;;;4996921;28;19989;-72
2021/09/30 14:56:33;;;;;;;;;;;17.80;90.70;;;;;;4987834;28;19933;-73
2021/09/30 14:59:03;;;;;;;;;;;17.90;90.00;;;;;;4977564;28;19926;-73
2021/09/30 15:01:35;;;;;;;;;;;18.10;90.00;;;;;;4978682;28;19925;-77
2021/09/30 15:04:07;;;;;;;;;;;18.20;89.40;;;;;;4993404;28;19925;-73
2021/09/30 15:06:41;;;;;;;;;;;18.50;91.40;;;;;;5011452;28;19932;-80
2021/09/30 15:09:16;;;;;;;;;;;18.80;91.10;;;;;;5011440;28;19934;-74
2021/09/30 15:11:51;;;;;;;;;;;19.10;90.90;;;;;;4986458;28;19948;-73
2021/09/30 15:14:30;;;;;;;;;;;19.30;90.40;;;;;;4988373;28;19930;-73
2021/09/30 15:22:55;;;;;;;;;;;19.70;87.30;;;;;;4989520;28;19930;-73
2021/09/30 15:25:36;;;;;;;;;;;19.90;86.60;;;;;;4976861;28;19930;-73
2021/09/30 15:28:31;;;;;;;;;;;;;;;;;;;;;
2021/09/30 15:31:04;;;;;;;;;;;20.30;84.70;;;;;;4977141;28;19926;-74
2021/09/30 15:33:36;;;;;;;;;;;20.40;83.90;;;;;;4975138;28;19926;-72
2021/09/30 15:36:04;;;;;;;;;;;20.60;82.00;;;;;;4974167;28;19926;-73
2021/09/30 15:38:31;;;;;;;;;;;20.70;82.60;;;;;;4990191;28;19932;-73
2021/09/30 15:41:03;;;;;;;;;;;20.80;81.60;;;;;;4995939;28;19948;-73
2021/09/30 15:43:35;;;;;;;;;;;21.20;79.80;;;;;;5008728;28;19933;-73
2021/09/30 15:46:02;;;;;;;;;;;21.30;80.10;;;;;;4993842;28;20343;-74
2021/09/30 15:48:29;;;;;;;;;;;21.40;77.10;;;;;;4989691;28;19926;-73
2021/09/30 15:51:01;;;;;;;;;;;21.30;74.70;;;;;;5002741;28;20371;-72
2021/09/30 15:53:33;;;;;;;;;;;21.20;74.60;;;;;;4988461;28;19932;-72
2021/09/30 15:56:05;;;;;;;;;;;21.10;75.30;;;;;;4984274;28;19965;-72
2021/09/30 15:58:38;;;;;;;;;;;21.00;84.10;;;;;;4999876;28;19930;-72
2021/09/30 16:01:04;;;;;;;;;;;20.50;90.20;;;;;;4988205;28;19933;-74
2021/09/30 16:03:36;;;;;;;;;;;20.10;91.70;;;;;;4994533;28;19933;-72
2021/09/30 16:06:04;;;;;;;;;;;19.60;92.90;;;;;;4974623;28;20340;-73
2021/09/30 16:08:35;;;;;;;;;;;19.20;94.00;;;;;;4972830;28;20404;-72
2021/09/30 16:11:02;;;;;;;;;;;18.80;95.30;;;;;;4983847;28;19930;-72
2021/09/30 16:13:34;;;;;;;;;;;18.40;96.90;;;;;;4993719;28;19933;-72
2021/09/30 16:16:06;;;;;;;;;;;18.00;97.70;;;;;;4968823;28;19925;-72
2021/09/30 16:18:38;;;;;;;;;;;17.60;98.90;;;;;;4975375;28;19977;-74
2021/09/30 16:21:11;;;;;;;;;;;17.40;99.90;;;;;;4974863;28;19968;-73
2021/09/30 16:23:43;;;;;;;;;;;16.80;99.90;;;;;;4995360;28;20388;-73
2021/09/30 16:26:19;;;;;;;;;;;16.20;99.90;;;;;;4958065;28;19958;-73
2021/09/30 16:28:54;;;;;;;;;;;15.80;99.90;;;;;;4975792;28;20467;-73
2021/09/30 16:31:22;;;;;;;;;;;15.40;99.90;;;;;;4971405;28;19925;-73
2021/09/30 16:33:49;;;;;;;;;;;15.00;99.90;;;;;;4980050;28;19960;-72
2021/09/30 16:36:21;;;;;;;;;;;14.80;99.90;;;;;;4981540;28;20309;-73
2021/09/30 16:38:49;;;;;;;;;;;14.50;99.90;;;;;;5002628;28;19925;-73
2021/09/30 16:41:21;;;;;;;;;;;14.20;99.90;;;;;;5001624;28;19952;-73
2021/09/30 16:43:53;;;;;;;;;;;13.90;99.90;;;;;;5002976;28;19926;-73
2021/09/30 16:46:25;;;;;;;;;;;13.70;99.90;;;;;;4983365;28;19930;-73
2021/09/30 16:48:52;;;;;;;;;;;13.50;99.90;;;;;;5002560;28;19932;-73
2021/09/30 16:51:20;;;;;;;;;;;13.30;99.90;;;;;;5003433;28;19925;-74
2021/09/30 16:53:48;;;;;;;;;;;13.20;99.90;;;;;;4986587;28;20347;-72
2021/09/30 16:56:17;;;;;;;;;;;13.10;99.90;;;;;;5002916;28;19936;-72
2021/09/30 16:58:44;;;;;;;;;;;13.00;99.90;;;;;;4999003;28;19936;-73
2021/09/30 17:01:13;;;;;;;;;;;12.80;99.90;;;;;;5002372;28;19929;-72
2021/09/30 17:03:45;;;;;;;;;;;12.70;99.90;;;;;;4983405;28;20393;-73
2021/09/30 17:06:17;;;;;;;;;;;12.50;99.90;;;;;;5001387;28;19965;-73
2021/09/30 17:08:49;;;;;;;;;;;12.40;99.90;;;;;;4986035;28;19930;-73
2021/09/30 17:11:20;;;;;;;;;;;12.20;99.90;;;;;;5001597;28;20300;-73
2021/09/30 17:13:52;;;;;;;;;;;12.00;99.90;;;;;;5002341;28;19925;-72
2021/09/30 17:16:19;;;;;;;;;;;11.90;99.90;;;;;;4993899;28;19929;-72
2021/09/30 17:18:51;;;;;;;;;;;11.80;99.90;;;;;;4976742;28;19930;-73
2021/09/30 17:21:23;;;;;;;;;;;11.70;99.90;;;;;;4993899;28;19932;-73
2021/09/30 17:23:56;;;;;;;;;;;11.60;99.90;;;;;;4978110;28;19926;-73
2021/09/30 17:26:28;;;;;;;;;;;11.50;99.90;;;;;;4959371;28;19926;-73
2021/09/30 17:29:00;;;;;;;;;;;11.50;99.90;;;;;;4992746;28;19933;-73
2021/09/30 17:31:27;;;;;;;;;;;11.40;99.90;;;;;;4992933;28;19926;-73
2021/09/30 17:33:58;;;;;;;;;;;11.50;99.90;;;;;;4993780;28;19930;-73
2021/09/30 17:36:25;;;;;;;;;;;11.50;99.90;;;;;;4993494;28;20016;-72
2021/09/30 17:38:57;;;;;;;;;;;11.40;99.90;;;;;;4976286;28;19930;-72
2021/09/30 17:41:24;;;;;;;;;;;11.30;99.90;;;;;;4992431;28;19977;-73
2021/09/30 17:43:56;;;;;;;;;;;11.20;99.90;;;;;;4976546;28;19984;-72
2021/09/30 17:46:22;;;;;;;;;;;11.20;99.90;;;;;;4993341;28;20012;-73
2021/09/30 17:48:54;;;;;;;;;;;11.10;99.90;;;;;;4995425;28;19926;-73
2021/09/30 17:51:26;;;;;;;;;;;11.00;99.90;;;;;;4988975;28;19933;-73
2021/09/30 17:53:58;;;;;;;;;;;10.90;99.90;;;;;;4991258;28;19926;-73
2021/09/30 17:56:29;;;;;;;;;;;10.80;99.90;;;;;;4992178;28;19926;-73
2021/09/30 17:58:56;;;;;;;;;;;10.80;99.90;;;;;;4993230;28;19941;-72
2021/09/30 18:01:28;;;;;;;;;;;10.70;99.90;;;;;;4975568;28;19925;-73
2021/09/30 18:04:00;;;;;;;;;;;10.70;99.90;;;;;;4992855;28;19925;-73
2021/09/30 18:06:31;;;;;;;;;;;10.60;99.90;;;;;;4975539;28;20645;-73